Time;durP1;ratioP1;P1;durP2;ratioP2;P2;SDS_P1;SDS_P2;PMS_P1;PMS_P2;Temp;Humidity;BMP_temperature;BMP_pressure;BME280_temperature;BME280_humidity;BME280_pressure;Samples;Min_cycle;Max_cycle;Signal;HPM_P1;HPM_P2
2022/07/29 00:02:41;;;;;;;8.17;2.30;;;;;;;24.59;33.09;97811.63;8084565;29;20552;-85
2022/07/29 00:06:44;;;;;;;6.50;2.10;;;;;;;24.72;32.35;97800.59;8096086;29;20527;-82
2022/07/29 00:10:48;;;;;;;8.83;2.30;;;;;;;24.62;32.08;97794.63;8095855;29;20426;-83
2022/07/29 00:14:51;;;;;;;5.73;2.30;;;;;;;24.65;32.36;97783.69;8095219;29;20231;-82
2022/07/29 00:18:54;;;;;;;4.53;1.90;;;;;;;24.66;31.73;97779.25;8095122;29;20542;-84
2022/07/29 00:22:58;;;;;;;7.10;2.23;;;;;;;24.58;32.20;97772.94;8095442;29;20245;-86
2022/07/29 00:27:02;;;;;;;5.03;2.17;;;;;;;24.55;31.98;97767.94;8066737;29;20260;-84
2022/07/29 00:31:05;;;;;;;4.80;1.80;;;;;;;24.62;32.04;97762.00;8064128;29;20238;-84
2022/07/29 00:39:29;;;;;;;8.07;2.50;;;;;;;24.22;32.17;97758.19;8064002;29;20242;-84
2022/07/29 00:43:33;;;;;;;5.80;2.07;;;;;;;24.24;32.68;97766.81;8063554;29;20420;-83
2022/07/29 00:47:36;;;;;;;7.40;1.90;;;;;;;24.16;32.36;97759.66;8063454;29;20522;-83
2022/07/29 00:51:40;;;;;;;8.70;2.20;;;;;;;23.94;32.43;97764.53;8063242;29;20230;-83
2022/07/29 00:55:42;;;;;;;4.63;2.10;;;;;;;23.97;32.45;97768.66;8062191;29;20242;-83
2022/07/29 00:59:47;;;;;;;7.13;2.00;;;;;;;23.95;32.36;97763.56;8063159;29;20418;-84
2022/07/29 01:03:49;;;;;;;3.93;2.00;;;;;;;24.09;32.47;97763.97;8055290;29;20436;-83
2022/07/29 01:07:54;;;;;;;3.30;1.70;;;;;;;24.12;32.04;97772.41;8063016;29;20238;-83
2022/07/29 01:11:57;;;;;;;5.57;2.10;;;;;;;24.31;31.90;97766.03;8062721;29;20241;-83
2022/07/29 01:16:04;;;;;;;5.43;2.00;;;;;;;24.41;32.03;97771.19;8062636;29;20548;-83
2022/07/29 01:20:13;;;;;;;5.40;1.77;;;;;;;24.55;32.30;97783.00;8062694;29;20309;-83
2022/07/29 01:24:41;;;;;;;7.33;2.53;;;;;;;24.53;32.57;97783.16;8062705;29;20435;-82
2022/07/29 01:28:59;;;;;;;5.07;2.10;;;;;;;24.51;33.71;97779.84;8061938;29;20561;-81
2022/07/29 01:33:48;;;;;;;4.27;2.20;;;;;;;24.44;33.38;97778.78;8057292;29;20246;-83
2022/07/29 01:37:42;;;;;;;6.43;2.50;;;;;;;24.37;33.78;97770.69;8062237;29;20422;-83
2022/07/29 01:41:52;;;;;;;5.60;2.47;;;;;;;24.35;34.09;97767.38;8062401;29;20238;-82
2022/07/29 01:46:00;;;;;;;8.60;2.20;;;;;;;24.34;33.89;97768.34;8061600;29;20239;-83
2022/07/29 01:50:06;;;;;;;4.23;2.07;;;;;;;24.40;33.43;97770.34;8062122;29;20544;-84
2022/07/29 01:54:13;;;;;;;5.33;2.33;;;;;;;24.14;32.97;97769.56;8061850;29;20540;-84
2022/07/29 01:58:18;;;;;;;7.27;2.30;;;;;;;24.07;33.07;97761.47;8061850;29;20257;-83
2022/07/29 02:02:23;;;;;;;5.13;2.00;;;;;;;24.19;33.37;97754.88;8061908;29;20238;-83
2022/07/29 02:06:27;;;;;;;5.70;2.30;;;;;;;24.19;33.22;97746.94;8064455;29;20245;-84
2022/07/29 02:10:31;;;;;;;5.47;2.00;;;;;;;23.92;33.36;97750.66;8068224;29;20237;-83
2022/07/29 02:14:37;;;;;;;13.20;2.53;;;;;;;23.63;33.74;97745.66;8067862;29;20547;-83
2022/07/29 02:18:43;;;;;;;3.37;1.87;;;;;;;23.82;33.96;97749.94;8067774;29;20430;-83
2022/07/29 02:22:46;;;;;;;7.10;2.23;;;;;;;23.66;34.39;97755.91;8067712;29;20240;-81
2022/07/29 02:26:50;;;;;;;5.90;2.00;;;;;;;23.66;33.63;97747.16;8067033;29;20431;-82
2022/07/29 02:30:54;;;;;;;4.27;1.80;;;;;;;23.75;33.42;97760.28;8067626;29;20256;-82
2022/07/29 02:34:59;;;;;;;7.80;2.23;;;;;;;23.61;33.17;97743.19;8067519;29;20265;-83
2022/07/29 02:39:04;;;;;;;6.03;2.30;;;;;;;23.41;33.70;97744.34;8067414;29;20558;-83
2022/07/29 02:43:07;;;;;;;5.80;2.00;;;;;;;23.52;33.27;97746.75;8067107;29;20261;-83
2022/07/29 02:47:14;;;;;;;5.63;2.10;;;;;;;23.73;33.63;97748.19;8067006;29;20242;-82
2022/07/29 02:51:23;;;;;;;6.20;2.00;;;;;;;23.81;33.88;97746.44;8067037;29;20234;-81
2022/07/29 02:55:56;;;;;;;4.80;2.13;;;;;;;23.69;33.34;97746.88;8066905;29;20233;-83
2022/07/29 03:00:03;;;;;;;2.70;1.70;;;;;;;23.81;33.49;97750.91;8042030;29;20236;-82
2022/07/29 03:04:06;;;;;;;7.87;2.20;;;;;;;23.82;33.52;97752.59;8035964;29;20246;-83
2022/07/29 03:08:12;;;;;;;6.67;2.50;;;;;;;23.78;33.21;97754.72;8036237;29;20532;-83
2022/07/29 03:12:15;;;;;;;6.77;2.00;;;;;;;23.80;33.15;97754.56;8036472;29;20239;-83
2022/07/29 03:16:19;;;;;;;7.10;1.90;;;;;;;23.76;33.69;97751.38;8035817;29;20235;-83
2022/07/29 03:20:23;;;;;;;5.77;1.97;;;;;;;23.66;34.38;97753.28;8035735;29;20242;-83
2022/07/29 03:24:28;;;;;;;7.13;1.90;;;;;;;23.58;33.88;97745.31;8036304;29;20247;-83
2022/07/29 03:28:31;;;;;;;5.03;1.90;;;;;;;23.60;34.05;97751.25;8035176;29;20242;-83
2022/07/29 03:32:34;;;;;;;9.10;2.27;;;;;;;23.53;34.49;97751.06;8035170;29;20237;-83
2022/07/29 03:36:37;;;;;;;4.60;2.20;;;;;;;23.50;34.56;97745.25;8034889;29;20243;-83
2022/07/29 03:40:46;;;;;;;8.13;2.40;;;;;;;23.47;35.26;97748.19;8035136;29;20235;-83
2022/07/29 03:44:49;;;;;;;10.10;2.30;;;;;;;23.42;35.25;97760.06;8034285;29;20278;-82
2022/07/29 03:48:57;;;;;;;7.27;2.20;;;;;;;23.40;35.64;97756.75;8034514;29;20242;-82
2022/07/29 03:53:01;;;;;;;7.33;2.50;;;;;;;23.28;35.57;97749.22;8034465;29;20450;-83
2022/07/29 03:57:06;;;;;;;10.40;2.30;;;;;;;23.31;35.84;97751.56;8034159;29;20242;-82
2022/07/29 04:01:09;;;;;;;5.33;2.33;;;;;;;23.20;35.90;97748.16;8033927;29;20237;-82
2022/07/29 04:05:13;;;;;;;8.97;2.67;;;;;;;23.22;36.20;97753.31;8034104;29;20261;-82
2022/07/29 04:09:16;;;;;;;6.30;2.80;;;;;;;23.15;36.15;97754.88;8034180;29;20238;-82
2022/07/29 04:13:20;;;;;;;8.57;2.50;;;;;;;23.10;36.54;97758.00;8052732;29;20545;-82
2022/07/29 04:17:23;;;;;;;3.97;2.03;;;;;;;23.10;36.82;97757.19;8064274;29;20237;-83
2022/07/29 04:21:26;;;;;;;6.70;2.23;;;;;;;22.99;37.22;97759.03;8064178;29;20238;-82
2022/07/29 04:25:29;;;;;;;6.53;2.50;;;;;;;22.98;37.78;97765.28;8064134;29;20241;-82
2022/07/29 04:29:33;;;;;;;6.93;2.60;;;;;;;23.05;37.73;97764.72;8062774;29;20574;-82
2022/07/29 04:33:36;;;;;;;6.00;2.47;;;;;;;22.97;37.64;97768.91;8063898;29;20240;-83
2022/07/29 04:37:39;;;;;;;8.43;2.67;;;;;;;23.03;37.99;97770.97;8063529;29;20238;-83
2022/07/29 04:41:42;;;;;;;6.30;2.57;;;;;;;22.92;38.68;97772.97;8063529;29;20245;-82
2022/07/29 04:45:46;;;;;;;9.23;2.60;;;;;;;22.99;38.87;97771.41;8063477;29;20418;-84
2022/07/29 04:49:49;;;;;;;10.00;2.83;;;;;;;23.02;38.96;97776.41;8063181;29;20234;-82
2022/07/29 04:53:51;;;;;;;6.10;2.87;;;;;;;;;;8062808;29;20229;-82
2022/07/29 04:57:54;;;;;;;6.90;2.70;;;;;;;23.11;38.72;97777.31;8063039;29;20242;-83
2022/07/29 05:01:59;;;;;;;9.37;3.00;;;;;;;23.23;38.66;97776.94;8062815;29;20253;-83
2022/07/29 05:06:01;;;;;;;5.93;2.70;;;;;;;23.17;38.50;97782.81;8062970;29;20238;-82
2022/07/29 05:10:05;;;;;;;4.07;2.70;;;;;;;23.40;37.76;97785.00;8062616;29;20241;-83
2022/07/29 05:14:08;;;;;;;7.17;2.60;;;;;;;23.34;37.99;97775.00;8062902;29;20248;-83
2022/07/29 05:18:12;;;;;;;6.80;2.50;;;;;;;23.22;37.45;97769.97;8062462;29;20240;-82
2022/07/29 05:22:15;;;;;;;5.40;2.43;;;;;;;23.05;38.11;97773.47;8062392;29;20230;-83
2022/07/29 05:26:18;;;;;;;6.50;2.63;;;;;;;23.30;37.44;97776.31;8055432;29;20560;-83
2022/07/29 05:30:20;;;;;;;7.73;2.30;;;;;;;23.51;36.71;97776.78;8031511;29;20456;-84
2022/07/29 05:34:25;;;;;;;7.33;2.20;;;;;;;23.56;36.26;97781.63;8031520;29;20239;-83
2022/07/29 05:38:27;;;;;;;4.87;2.53;;;;;;;23.58;35.33;97787.59;8030877;29;20250;-84
2022/07/29 05:42:30;;;;;;;7.27;2.50;;;;;;;23.25;35.66;97782.06;8030646;29;20306;-84
2022/07/29 05:46:33;;;;;;;9.87;2.37;;;;;;;22.98;35.80;97777.66;8030916;29;20517;-84
2022/07/29 05:50:37;;;;;;;5.73;2.20;;;;;;;23.50;35.53;97787.53;8031004;29;20544;-84
2022/07/29 05:54:46;;;;;;;7.70;2.23;;;;;;;23.55;35.09;97780.81;8030901;29;20235;-85
2022/07/29 05:58:49;;;;;;;11.87;2.40;;;;;;;23.74;35.18;97793.00;8022925;29;20245;-83
2022/07/29 06:02:52;;;;;;;6.50;2.03;;;;;;;23.56;34.90;97785.09;8049368;29;20244;-83
2022/07/29 06:06:56;;;;;;;5.40;2.30;;;;;;;23.85;34.36;97785.81;8061520;29;20235;-83
2022/07/29 06:10:59;;;;;;;9.30;2.40;;;;;;;24.08;34.32;97786.91;8061124;29;20250;-83
2022/07/29 06:15:01;;;;;;;8.17;2.67;;;;;;;23.77;34.48;97790.03;8061005;29;20238;-83
2022/07/29 06:19:05;;;;;;;7.73;2.10;;;;;;;24.07;34.85;97790.56;8061269;29;20247;-83
2022/07/29 06:23:09;;;;;;;7.30;2.40;;;;;;;24.29;33.93;97796.28;8061382;29;20252;-84
2022/07/29 06:27:12;;;;;;;7.53;2.40;;;;;;;24.65;33.77;97798.75;8061027;29;20245;-82
2022/07/29 06:31:15;;;;;;;6.90;2.33;;;;;;;24.61;33.60;97792.94;8061063;29;20530;-82
2022/07/29 06:35:18;;;;;;;8.90;2.53;;;;;;;24.44;33.67;97785.91;8061065;29;20301;-83
2022/07/29 06:39:42;;;;;;;6.40;2.60;;;;;;;24.12;34.13;97788.28;8061050;29;20236;-84
2022/07/29 06:43:45;;;;;;;4.10;2.10;;;;;;;24.82;33.97;97794.31;8061068;29;20234;-84
2022/07/29 06:47:56;;;;;;;6.03;2.50;;;;;;;24.83;33.79;97788.88;8060722;29;20260;-84
2022/07/29 06:51:59;;;;;;;11.97;2.93;;;;;;;24.96;33.89;97793.69;8061672;29;20242;-83
2022/07/29 06:56:04;;;;;;;10.60;2.53;;;;;;;25.13;33.73;97798.03;8066457;29;20555;-83
2022/07/29 07:00:08;;;;;;;12.17;2.97;;;;;;;25.29;32.83;97802.53;8066456;29;27563;-84
2022/07/29 07:04:11;;;;;;;14.67;2.83;;;;;;;25.36;33.58;97786.78;8066121;29;20232;-83
2022/07/29 07:08:15;;;;;;;9.10;3.17;;;;;;;24.89;34.14;97803.28;8066087;29;20242;-83
2022/07/29 07:12:20;;;;;;;10.47;3.27;;;;;;;25.00;34.04;97797.66;8065293;29;20235;-85
2022/07/29 07:16:23;;;;;;;8.07;2.70;;;;;;;25.83;33.48;97796.66;8065938;29;20234;-86
2022/07/29 07:20:26;;;;;;;8.23;2.87;;;;;;;25.61;33.74;97789.41;8065652;29;20313;-81
2022/07/29 07:24:29;;;;;;;7.67;2.87;;;;;;;26.10;33.50;97794.63;8065992;29;20527;-83
2022/07/29 07:28:34;;;;;;;7.40;2.90;;;;;;;26.28;33.57;97794.41;8064985;29;20246;-84
2022/07/29 07:32:37;;;;;;;8.20;2.70;;;;;;;26.56;33.35;97789.50;8065289;29;20235;-85
2022/07/29 07:36:40;;;;;;;9.73;2.90;;;;;;;26.04;33.66;97790.00;8065102;29;20239;-79
2022/07/29 07:40:43;;;;;;;8.00;3.00;;;;;;;26.62;32.99;97778.19;8063543;29;20231;-79
2022/07/29 07:44:48;;;;;;;6.73;3.30;;;;;;;26.33;33.13;97786.75;8064713;29;20536;-83
2022/07/29 07:49:10;;;;;;;11.43;2.90;;;;;;;26.85;32.38;97783.53;8064066;29;20325;-81
2022/07/29 07:53:13;;;;;;;7.60;2.70;;;;;;;27.00;32.93;97777.47;8063922;29;20400;-79
2022/07/29 07:57:17;;;;;;;7.80;3.17;;;;;;;27.04;32.71;97776.09;8064092;29;20244;-82
2022/07/29 08:01:22;;;;;;;9.60;3.03;;;;;;;27.95;32.01;97774.34;8064062;29;20231;-83
2022/07/29 08:05:25;;;;;;;6.17;2.80;;;;;;;27.63;31.93;97770.97;8063548;29;20524;-85
2022/07/29 08:09:29;;;;;;;12.40;3.33;;;;;;;27.21;32.65;97771.50;8064076;29;20231;-83
2022/07/29 08:13:32;;;;;;;7.13;3.30;;;;;;;26.68;33.36;97780.13;8063754;29;20441;-82
2022/07/29 08:17:37;;;;;;;12.27;2.83;;;;;;;27.73;32.33;97770.69;8063734;29;20250;-83
2022/07/29 08:21:39;;;;;;;10.33;2.60;;;;;;;27.58;32.77;97770.69;8063547;29;20427;-84
2022/07/29 08:25:42;;;;;;;5.87;2.80;;;;;;;28.58;31.18;97772.09;8063415;29;20233;-82
2022/07/29 08:29:45;;;;;;;12.73;3.23;;;;;;;28.68;31.25;97771.78;8063192;29;20248;-84
2022/07/29 08:33:50;;;;;;;10.40;2.90;;;;;;;29.17;30.30;97779.06;8039589;29;20425;-79
2022/07/29 08:37:53;;;;;;;5.93;2.73;;;;;;;29.20;30.55;97773.34;8032526;29;20240;-81
2022/07/29 08:41:56;;;;;;;3.80;2.40;;;;;;;28.60;30.93;97769.25;8032302;29;20237;-82
2022/07/29 08:46:00;;;;;;;12.37;2.87;;;;;;;28.76;31.54;97771.66;8033675;29;20251;-81
2022/07/29 08:50:04;;;;;;;8.60;3.00;;;;;;;28.38;31.62;97771.00;8062893;29;20252;-83
2022/07/29 08:54:09;;;;;;;8.93;2.90;;;;;;;28.62;32.05;97773.34;8062911;29;20440;-81
2022/07/29 08:58:12;;;;;;;8.10;2.70;;;;;;;28.58;31.67;97771.28;8062052;29;20241;-76
2022/07/29 09:02:20;;;;;;;8.00;2.70;;;;;;;29.12;31.18;97772.63;8062611;29;20476;-82
2022/07/29 09:06:27;;;;;;;6.30;2.67;;;;;;;29.32;30.70;97775.50;8061907;29;20238;-82
2022/07/29 09:10:31;;;;;;;3.70;2.50;;;;;;;30.05;29.54;97757.34;8062010;29;20237;-80
2022/07/29 09:14:33;;;;;;;4.60;2.37;;;;;;;30.27;28.89;97765.25;8060849;29;20286;-81
2022/07/29 09:18:38;;;;;;;14.80;2.97;;;;;;;30.45;28.90;97762.09;8060834;29;20244;-81
2022/07/29 09:22:43;;;;;;;3.93;2.43;;;;;;;29.80;29.02;97765.84;8061778;29;20243;-78
2022/07/29 09:26:47;;;;;;;5.30;2.50;;;;;;;30.12;29.41;97760.03;8061301;29;20238;-81
2022/07/29 09:30:53;;;;;;;9.90;2.60;;;;;;;29.45;29.33;97756.94;8030458;29;20544;-80
2022/07/29 09:35:18;;;;;;;6.03;2.10;;;;;;;29.37;30.02;97754.41;8031122;29;20242;-81
2022/07/29 09:39:31;;;;;;;8.40;2.70;;;;;;;29.48;29.76;97753.06;8030874;29;20246;-79
2022/07/29 09:43:34;;;;;;;12.33;3.37;;;;;;;29.32;29.78;97755.00;8030914;29;20241;-82
2022/07/29 09:47:46;;;;;;;4.03;2.40;;;;;;;29.98;29.06;97745.81;8029937;29;20238;-83
2022/07/29 09:52:00;;;;;;;4.33;2.50;;;;;;;30.11;29.07;97756.56;8029567;29;20234;-79
2022/07/29 09:56:05;;;;;;;5.30;2.57;;;;;;;29.75;29.63;97752.25;8029813;29;20250;-82
2022/07/29 10:00:10;;;;;;;8.07;2.60;;;;;;;30.09;29.28;97753.25;8030229;29;20249;-82
2022/07/29 10:04:13;;;;;;;5.83;2.50;;;;;;;30.17;29.00;97746.94;8030295;29;20513;-82
2022/07/29 10:08:26;;;;;;;5.60;2.47;;;;;;;29.53;29.37;97753.28;8029821;29;20231;-83
2022/07/29 10:12:30;;;;;;;5.57;2.47;;;;;;;29.06;29.20;97752.91;8030357;29;20522;-81
2022/07/29 10:16:33;;;;;;;5.83;2.77;;;;;;;29.75;29.00;97752.25;8030327;29;20246;-81
2022/07/29 10:20:37;;;;;;;6.03;2.50;;;;;;;30.06;28.61;97750.16;8030279;29;20245;-82
2022/07/29 10:24:40;;;;;;;8.40;2.57;;;;;;;30.15;29.23;97757.00;8029687;29;20245;-81
2022/07/29 10:28:45;;;;;;;4.70;2.57;;;;;;;31.07;28.28;97747.66;8033121;29;20242;-81
2022/07/29 10:33:22;;;;;;;3.83;2.57;;;;;;;31.83;26.14;97749.06;8057772;29;20245;-83
2022/07/29 10:37:30;;;;;;;7.47;2.50;;;;;;;31.66;26.12;97731.78;8065424;29;20257;-84
2022/07/29 10:42:00;;;;;;;4.67;2.57;;;;;;;31.64;26.48;97736.53;8066897;29;20284;-87
2022/07/29 10:46:06;;;;;;;6.83;2.50;;;;;;;32.04;25.69;97739.16;8060277;29;20260;-84
2022/07/29 10:50:09;;;;;;;3.97;2.27;;;;;;;32.07;24.76;97728.84;8065800;29;20263;-83
2022/07/29 10:54:19;;;;;;;9.57;2.53;;;;;;;32.78;24.61;97726.25;8065567;29;20313;-82
2022/07/29 10:58:25;;;;;;;7.83;2.53;;;;;;;32.10;24.12;97722.22;8065627;29;20555;-84
2022/07/29 11:02:48;;;;;;;4.67;2.33;;;;;;;32.25;24.66;97722.81;8065389;29;20262;-82
2022/07/29 11:07:08;;;;;;;4.03;2.20;;;;;;;33.49;24.25;97709.81;8064702;29;20365;-82
2022/07/29 11:11:36;;;;;;;3.77;2.00;;;;;;;33.25;23.29;97711.47;8065168;29;20294;-81
2022/07/29 11:15:54;;;;;;;7.40;2.10;;;;;;;33.81;22.55;97709.72;8065081;29;20253;-82
2022/07/29 11:20:30;;;;;;;9.03;2.20;;;;;;;34.02;22.05;97718.38;8037498;29;20388;-83
2022/07/29 11:24:39;;;;;;;4.00;2.30;;;;;;;33.86;22.37;97711.75;8042941;29;20232;-83
2022/07/29 11:28:55;;;;;;;7.23;2.10;;;;;;;33.67;22.67;97708.22;8051297;29;20294;-80
2022/07/29 11:32:57;;;;;;;8.73;2.33;;;;;;;34.02;22.93;97715.69;8050273;29;20250;-81
2022/07/29 11:37:24;;;;;;;4.67;2.40;;;;;;;34.10;22.43;97707.34;8034884;29;20345;-81
2022/07/29 11:41:36;;;;;;;5.20;1.80;;;;;;;33.85;21.72;97700.19;8063130;29;20242;-84
2022/07/29 11:45:47;;;;;;;3.10;2.00;;;;;;;33.93;22.63;97698.22;8064630;29;20251;-84
2022/07/29 11:49:51;;;;;;;4.83;2.13;;;;;;;33.53;21.79;97695.94;8056734;29;20247;-84
2022/07/29 11:53:56;;;;;;;4.30;2.30;;;;;;;33.90;21.73;97691.44;8064358;29;20339;-83
2022/07/29 11:58:08;;;;;;;7.47;2.27;;;;;;;34.10;21.93;97677.78;8063739;29;20542;-83
2022/07/29 12:02:13;;;;;;;3.40;2.23;;;;;;;33.82;22.12;97676.47;8063817;29;20250;-82
2022/07/29 12:06:35;;;;;;;2.85;2.20;;;;;;;34.20;21.80;97671.91;8063991;29;20238;-84
2022/07/29 12:10:39;;;;;;;5.70;2.17;;;;;;;33.25;22.27;97671.22;8065543;29;20466;-86
2022/07/29 12:14:46;;;;;;;3.35;1.90;;;;;;;34.04;21.57;97670.59;8064560;29;20240;-81
2022/07/29 12:18:56;;;;;;;4.87;2.27;;;;;;;34.18;21.62;97652.50;8062804;29;20432;-83
2022/07/29 12:22:58;;;;;;;3.80;2.30;;;;;;;34.39;21.58;97645.81;8063588;29;20242;-83
2022/07/29 12:27:01;;;;;;;5.57;2.30;;;;;;;34.31;21.92;97646.94;8063366;29;20267;-83
2022/07/29 12:31:07;;;;;;;3.40;2.00;;;;;;;34.10;22.03;97645.56;8063412;29;20245;-84
2022/07/29 12:35:13;;;;;;;4.88;2.13;;;;;;;33.35;22.95;97643.06;8063084;29;20240;-83
2022/07/29 12:39:16;;;;;;;12.73;2.37;;;;;;;32.28;23.69;97649.22;8063226;29;20252;-83
2022/07/29 12:43:21;;;;;;;4.97;2.30;;;;;;;32.77;23.19;97639.66;8063017;29;20527;-84
2022/07/29 12:47:25;;;;;;;4.67;2.07;;;;;;;32.62;23.04;97639.97;8062901;29;20240;-84
2022/07/29 12:51:31;;;;;;;4.30;2.10;;;;;;;32.65;22.51;97633.34;8061720;29;20248;-84
2022/07/29 12:55:44;;;;;;;4.33;2.47;;;;;;;32.15;23.66;97637.53;8062243;29;20240;-84
2022/07/29 13:00:00;;;;;;;3.73;2.20;;;;;;;33.28;22.23;97630.56;8061566;29;20244;-83
2022/07/29 13:04:04;;;;;;;2.53;2.00;;;;;;;34.06;21.91;97623.69;8061922;29;20238;-83
2022/07/29 13:08:14;;;;;;;5.57;2.50;;;;;;;33.23;22.92;97624.22;8046060;29;20252;-83
2022/07/29 13:12:23;;;;;;;7.20;2.63;;;;;;;33.83;22.12;97613.66;8046850;29;20346;-84
2022/07/29 13:16:26;;;;;;;4.00;2.27;;;;;;;34.21;22.30;97615.22;8046331;29;20237;-80
2022/07/29 13:20:30;;;;;;;4.75;2.22;;;;;;;33.25;22.37;97611.41;8046372;29;20562;-84
2022/07/29 13:24:33;;;;;;;6.20;2.60;;;;;;;32.76;23.24;97603.13;8035566;29;20247;-83
2022/07/29 13:28:36;;;;;;;3.30;2.27;;;;;;;32.63;23.83;97600.56;8037701;29;20274;-84
2022/07/29 13:32:39;;;;;;;4.43;2.30;;;;;;;32.50;23.88;97593.41;8046346;29;20244;-81
2022/07/29 13:36:43;;;;;;;8.37;2.10;;;;;;;32.07;24.29;97605.66;8052900;29;20248;-81
2022/07/29 13:40:46;;;;;;;2.60;2.00;;;;;;;31.63;24.69;97607.25;8060867;29;20233;-81
2022/07/29 13:44:51;;;;;;;5.30;2.43;;;;;;;31.46;24.88;97600.72;8060597;29;20520;-81
2022/07/29 13:48:54;;;;;;;6.73;2.37;;;;;;;31.10;25.24;97596.69;8060920;29;20250;-81
2022/07/29 13:52:58;;;;;;;5.17;2.13;;;;;;;30.93;24.88;97589.06;8060833;29;20263;-81
2022/07/29 13:57:01;;;;;;;2.43;2.10;;;;;;;30.48;25.76;97591.53;8060894;29;20333;-82
2022/07/29 14:01:04;;;;;;;3.37;2.03;;;;;;;30.65;25.84;97591.13;8061030;29;20248;-85
2022/07/29 14:05:08;;;;;;;2.63;1.93;;;;;;;30.43;26.91;97579.81;8061064;29;20346;-83
2022/07/29 14:09:12;;;;;;;6.80;1.60;;;;;;;29.89;27.05;97590.38;8060147;29;20535;-81
2022/07/29 14:13:14;;;;;;;2.93;1.63;;;;;;;29.70;27.65;97607.91;8060717;29;20244;-81
2022/07/29 14:17:27;;;;;;;3.23;1.80;;;;;;;29.70;27.98;97602.56;8060253;29;20243;-82
2022/07/29 14:21:30;;;;;;;3.40;1.70;;;;;;;29.50;28.34;97599.00;8060751;29;20242;-82
2022/07/29 14:25:36;;;;;;;2.70;1.60;;;;;;;29.31;28.90;97597.84;8060629;29;20346;-81
2022/07/29 14:29:42;;;;;;;5.00;1.90;;;;;;;29.13;29.55;97607.19;8059998;29;20260;-81
2022/07/29 14:33:45;;;;;;;4.17;1.50;;;;;;;29.01;31.50;97609.50;8060533;29;20244;-82
2022/07/29 14:37:51;;;;;;;5.17;1.50;;;;;;;28.80;32.34;97636.22;8060109;29;20236;-81
2022/07/29 14:41:55;;;;;;;8.57;1.83;;;;;;;28.72;32.71;97685.13;8060123;29;20242;-80
2022/07/29 14:45:59;;;;;;;3.03;1.90;;;;;;;28.47;34.08;97706.78;8060512;29;20247;-81
2022/07/29 14:50:10;;;;;;;6.20;2.73;;;;;;;27.08;39.67;97735.69;8060333;29;20488;-79
2022/07/29 14:54:14;;;;;;;10.63;3.43;;;;;;;27.02;44.68;97738.25;8059916;29;20237;-80
2022/07/29 14:58:19;;;;;;;11.90;3.77;;;;;;;27.17;45.46;97733.81;8059761;29;20232;-80
2022/07/29 15:02:22;;;;;;;15.13;4.27;;;;;;;26.27;48.41;97744.97;8059446;29;20240;-80
2022/07/29 15:06:37;;;;;;;8.03;3.60;;;;;;;26.15;47.74;97741.88;8059988;29;20429;-80
2022/07/29 15:10:40;;;;;;;8.63;3.70;;;;;;;26.45;48.20;97755.34;8059553;29;20439;-81
2022/07/29 15:14:44;;;;;;;10.87;4.03;;;;;;;26.64;51.54;97775.38;8062492;29;20245;-80
2022/07/29 15:18:47;;;;;;;16.47;6.03;;;;;;;26.22;54.20;97787.97;8064854;29;20248;-79
2022/07/29 15:22:50;;;;;;;13.63;5.67;;;;;;;25.91;55.25;97796.69;8065177;29;20230;-81
2022/07/29 15:26:53;;;;;;;13.83;5.00;;;;;;;26.11;54.52;97802.44;8064846;29;20258;-81
2022/07/29 15:30:58;;;;;;;16.93;5.87;;;;;;;26.07;54.88;97817.03;8064726;29;20237;-81
2022/07/29 15:35:00;;;;;;;11.07;4.67;;;;;;;25.87;54.72;97815.72;8064527;29;20241;-81
2022/07/29 15:39:03;;;;;;;14.33;6.07;;;;;;;25.68;55.33;97809.81;8064765;29;20245;-81
2022/07/29 15:43:06;;;;;;;11.03;4.93;;;;;;;25.80;55.06;97804.13;8064907;29;20254;-82
2022/07/29 15:47:11;;;;;;;10.30;5.10;;;;;;;25.74;54.77;97809.13;8064849;29;20426;-80
2022/07/29 15:51:14;;;;;;;7.80;4.50;;;;;;;25.73;55.13;97815.41;8065018;29;20242;-80
2022/07/29 15:55:17;;;;;;;8.27;4.20;;;;;;;25.75;53.56;97824.03;8064826;29;20252;-81
2022/07/29 15:59:20;;;;;;;7.93;4.23;;;;;;;25.58;53.96;97833.00;8063434;29;20243;-82
2022/07/29 16:03:25;;;;;;;7.37;4.27;;;;;;;25.60;55.32;97844.25;8064205;29;20592;-82
2022/07/29 16:07:28;;;;;;;6.10;3.73;;;;;;;25.39;55.46;97838.63;8063787;29;20239;-80
2022/07/29 16:11:34;;;;;;;5.00;3.37;;;;;;;25.36;54.92;97834.50;8063837;29;20294;-80
2022/07/29 16:15:37;;;;;;;6.07;3.90;;;;;;;25.37;55.54;97836.16;8063573;29;20237;-81
2022/07/29 16:19:41;;;;;;;9.70;4.53;;;;;;;25.27;56.38;97835.50;8063680;29;20245;-81
2022/07/29 16:23:44;;;;;;;9.13;4.10;;;;;;;25.25;55.88;97835.66;8063643;29;20237;-82
2022/07/29 16:27:46;;;;;;;7.07;3.97;;;;;;;25.12;56.13;97837.91;8063360;29;20425;-82
2022/07/29 16:31:49;;;;;;;5.90;3.50;;;;;;;25.10;56.34;97831.97;8062849;29;20447;-81
2022/07/29 16:35:54;;;;;;;6.30;3.53;;;;;;;25.07;56.46;97830.44;8063156;29;20347;-81
2022/07/29 16:39:57;;;;;;;7.63;3.73;;;;;;;24.97;56.87;97822.66;8063291;29;20242;-81
2022/07/29 16:44:00;;;;;;;9.50;4.10;;;;;;;24.95;56.76;97819.34;8062990;29;20238;-82
2022/07/29 16:48:04;;;;;;;8.13;3.80;;;;;;;25.01;56.30;97827.63;8063188;29;20235;-82
2022/07/29 16:52:09;;;;;;;7.03;3.60;;;;;;;25.00;56.74;97820.66;8062924;29;20259;-82
2022/07/29 16:56:12;;;;;;;6.27;3.80;;;;;;;24.95;56.95;97829.94;8062155;29;20548;-80
2022/07/29 17:00:16;;;;;;;7.63;3.77;;;;;;;24.91;57.46;97831.25;8062545;29;20249;-80
2022/07/29 17:04:19;;;;;;;6.20;3.90;;;;;;;24.81;57.36;97835.88;8062111;29;20236;-81
2022/07/29 17:08:26;;;;;;;9.43;4.30;;;;;;;24.65;57.62;97843.75;8062254;29;20242;-81
2022/07/29 17:12:28;;;;;;;7.37;4.00;;;;;;;24.82;57.79;97840.16;8062379;29;20237;-81
2022/07/29 17:16:32;;;;;;;6.23;4.10;;;;;;;24.76;58.14;97844.28;8062152;29;20238;-80
2022/07/29 17:20:35;;;;;;;8.73;4.27;;;;;;;24.71;58.22;97845.75;8062236;29;20294;-83
2022/07/29 17:24:39;;;;;;;6.17;4.23;;;;;;;24.72;57.36;97840.31;8062113;29;20416;-81
2022/07/29 17:28:43;;;;;;;7.20;4.07;;;;;;;24.67;58.21;97841.78;8061565;29;20243;-81
2022/07/29 17:32:45;;;;;;;6.57;4.17;;;;;;;24.63;57.73;97848.38;8061580;29;20413;-80
2022/07/29 17:36:48;;;;;;;9.07;4.00;;;;;;;24.57;57.73;97855.16;8060972;29;20233;-82
2022/07/29 17:40:53;;;;;;;7.90;4.53;;;;;;;24.62;57.42;97860.78;8060886;29;20434;-81
2022/07/29 17:44:56;;;;;;;10.23;3.87;;;;;;;24.60;57.44;97857.47;8061607;29;20534;-82
2022/07/29 17:48:59;;;;;;;7.97;4.43;;;;;;;24.57;57.80;97857.78;8061892;29;20563;-82
2022/07/29 17:53:02;;;;;;;6.07;4.00;;;;;;;24.47;58.13;97847.31;8061980;29;20265;-82
2022/07/29 17:57:12;;;;;;;6.07;4.07;;;;;;;24.54;57.75;97839.56;8062382;29;20295;-81
2022/07/29 18:01:15;;;;;;;6.93;3.63;;;;;;;24.47;57.85;97835.88;8061038;29;20238;-81
2022/07/29 18:05:18;;;;;;;4.13;3.40;;;;;;;24.51;58.01;97832.78;8061521;29;20235;-82
2022/07/29 18:09:21;;;;;;;8.07;4.07;;;;;;;24.48;58.18;97835.72;8061313;29;20239;-83
2022/07/29 18:13:26;;;;;;;3.73;3.20;;;;;;;24.44;56.92;97831.72;8061467;29;20247;-83
2022/07/29 18:17:29;;;;;;;9.03;3.93;;;;;;;24.48;57.92;97835.72;8061274;29;20240;-82
2022/07/29 18:21:52;;;;;;;19.23;5.10;;;;;;;24.44;58.22;97836.19;8060014;29;20242;-81
2022/07/29 18:25:57;;;;;;;6.40;3.73;;;;;;;24.20;59.07;97832.47;8060532;29;20241;-82
2022/07/29 18:30:02;;;;;;;7.37;4.30;;;;;;;24.29;58.86;97825.38;8060201;29;20253;-81
2022/07/29 18:34:06;;;;;;;6.60;4.40;;;;;;;24.22;58.32;97837.56;8060709;29;20250;-82
2022/07/29 18:38:09;;;;;;;10.03;5.00;;;;;;;24.24;59.10;97848.81;8060528;29;20227;-84
2022/07/29 18:42:12;;;;;;;6.57;4.90;;;;;;;24.17;58.52;97856.56;8060999;29;20236;-82
2022/07/29 18:46:16;;;;;;;6.83;4.17;;;;;;;24.05;58.64;97865.78;8061277;29;20514;-83
2022/07/29 18:50:21;;;;;;;8.23;3.83;;;;;;;24.11;59.28;97876.53;8064871;29;20233;-82
2022/07/29 18:54:30;;;;;;;6.17;3.63;;;;;;;24.13;57.27;97879.03;8066596;29;20329;-81
2022/07/29 18:58:33;;;;;;;6.47;3.33;;;;;;;24.12;56.87;97874.72;8065668;29;20234;-86
2022/07/29 19:02:37;;;;;;;6.63;4.23;;;;;;;24.05;58.13;97879.00;8065705;29;20238;-84
2022/07/29 19:06:44;;;;;;;6.73;4.20;;;;;;;24.11;57.65;97878.38;8065659;29;20427;-84
2022/07/29 19:10:47;;;;;;;7.53;4.47;;;;;;;24.07;58.78;97891.06;8066078;29;20233;-84
2022/07/29 19:14:49;;;;;;;5.53;4.63;;;;;;;24.06;58.88;97891.22;8057749;29;20230;-82
2022/07/29 19:18:54;;;;;;;5.87;5.27;;;;;;;24.04;59.34;97904.59;8065185;29;20234;-83
2022/07/29 19:22:57;;;;;;;7.60;4.83;;;;;;;24.04;59.08;97904.59;8065381;29;20238;-82